Time,TemperatureF,DewpointF,PressureIn,WindDirection,WindDirectionDegrees,WindSpeedMPH,WindSpeedGustMPH,Humidity,HourlyPrecipIn,Conditions,Clouds,dailyrainin,SolarRadiationWatts/m^2,SoftwareType,DateUTC
2013-08-08 00:01:00,73.2,71.8,29.98,East,92,0.0,0.0,95,0.00,,,0.00,0.0,meteohub,2013-08-08 04:01:00,
2013-08-08 00:06:00,73.6,72.3,29.98,East,92,0.0,0.0,96,0.00,,,0.00,0.0,meteohub,2013-08-08 04:06:00,
2013-08-08 00:11:00,73.6,72.3,29.98,East,92,0.0,0.0,96,0.00,,,0.00,0.0,meteohub,2013-08-08 04:11:00,
2013-08-08 00:16:00,73.4,72.1,29.98,East,92,0.0,0.0,96,0.00,,,0.00,0.0,meteohub,2013-08-08 04:16:00,
2013-08-08 00:21:00,73.2,72.0,29.98,East,92,0.0,0.0,96,0.00,,,0.00,0.0,meteohub,2013-08-08 04:21:00,
2013-08-08 00:26:00,73.2,72.0,29.97,East,92,0.0,0.0,96,0.00,,,0.00,0.0,meteohub,2013-08-08 04:26:00,
2013-08-08 00:31:00,73.2,72.0,29.97,East,92,0.0,0.0,96,0.00,,,0.00,0.0,meteohub,2013-08-08 04:31:00,
2013-08-08 00:36:00,73.4,72.1,29.97,East,92,0.0,0.0,96,0.00,,,0.00,0.0,meteohub,2013-08-08 04:36:00,
2013-08-08 00:41:00,73.6,72.3,29.97,East,92,0.0,0.0,96,0.00,,,0.00,0.0,meteohub,2013-08-08 04:41:00,
2013-08-08 00:46:00,73.6,72.3,29.97,East,92,0.0,0.0,96,0.00,,,0.00,0.0,meteohub,2013-08-08 04:46:00,
2013-08-08 00:51:00,73.6,72.3,29.97,East,92,0.0,0.0,96,0.00,,,0.00,0.0,meteohub,2013-08-08 04:51:00,
2013-08-08 00:56:00,73.6,72.3,29.97,East,92,0.0,0.0,96,0.00,,,0.00,0.0,meteohub,2013-08-08 04:56:00,
2013-08-08 01:01:00,73.6,72.3,29.97,East,92,0.0,0.0,96,0.00,,,0.00,0.0,meteohub,2013-08-08 05:01:00,
2013-08-08 01:07:00,73.6,72.3,29.96,East,92,0.0,0.0,96,0.00,,,0.00,0.0,meteohub,2013-08-08 05:07:00,
2013-08-08 01:12:00,73.6,72.3,29.96,East,92,0.0,0.0,96,0.00,,,0.00,0.0,meteohub,2013-08-08 05:12:00,
2013-08-08 01:17:00,73.6,72.3,29.96,East,92,0.0,0.0,96,0.00,,,0.00,0.0,meteohub,2013-08-08 05:17:00,
2013-08-08 01:22:00,73.6,72.3,29.96,East,92,0.0,0.0,96,0.00,,,0.00,0.0,meteohub,2013-08-08 05:22:00,
2013-08-08 01:27:00,73.6,72.3,29.96,East,92,0.0,0.0,96,0.00,,,0.00,0.0,meteohub,2013-08-08 05:27:00,
2013-08-08 01:32:00,73.6,72.3,29.96,East,92,0.0,0.0,96,0.00,,,0.00,0.0,meteohub,2013-08-08 05:32:00,
2013-08-08 01:37:00,73.6,72.3,29.96,East,92,0.0,0.0,96,0.00,,,0.00,0.0,meteohub,2013-08-08 05:37:00,
2013-08-08 01:42:00,73.4,72.1,29.96,East,92,0.0,0.0,96,0.00,,,0.00,0.0,meteohub,2013-08-08 05:42:00,
2013-08-08 01:47:00,73.4,72.1,29.96,East,92,0.0,0.0,96,0.00,,,0.00,0.0,meteohub,2013-08-08 05:47:00,
2013-08-08 01:52:00,73.4,72.5,29.96,East,92,0.0,0.0,97,0.00,,,0.00,0.0,meteohub,2013-08-08 05:52:00,
2013-08-08 01:57:00,73.6,72.7,29.96,East,92,0.0,0.0,97,0.00,,,0.00,0.0,meteohub,2013-08-08 05:57:00,
2013-08-08 02:02:00,73.6,72.7,29.96,East,92,0.0,0.0,97,0.00,,,0.00,0.0,meteohub,2013-08-08 06:02:00,
2013-08-08 02:07:00,73.6,72.7,29.96,East,92,0.0,0.0,97,0.00,,,0.00,0.0,meteohub,2013-08-08 06:07:00,
2013-08-08 02:12:00,73.4,72.5,29.96,East,92,0.0,0.0,97,0.00,,,0.00,0.0,meteohub,2013-08-08 06:12:00,
2013-08-08 02:17:00,73.6,72.7,29.96,East,92,0.0,0.0,97,0.00,,,0.00,0.0,meteohub,2013-08-08 06:17:00,
2013-08-08 02:22:00,73.4,72.5,29.96,East,92,0.0,0.0,97,0.00,,,0.00,0.0,meteohub,2013-08-08 06:22:00,
2013-08-08 02:27:00,73.2,72.3,29.96,East,92,0.0,0.0,97,0.00,,,0.00,0.0,meteohub,2013-08-08 06:27:00,
2013-08-08 02:32:00,73.2,72.3,29.95,East,92,0.0,0.0,97,0.00,,,0.00,0.0,meteohub,2013-08-08 06:32:00,
2013-08-08 02:37:00,73.6,72.7,29.95,East,92,0.0,0.0,97,0.00,,,0.00,0.0,meteohub,2013-08-08 06:37:00,
2013-08-08 02:42:00,73.8,72.9,29.95,East,92,0.0,0.0,97,0.00,,,0.00,0.0,meteohub,2013-08-08 06:42:00,
2013-08-08 02:47:00,73.8,72.9,29.95,East,92,0.0,0.0,97,0.00,,,0.00,0.0,meteohub,2013-08-08 06:47:00,
2013-08-08 02:52:00,73.8,72.9,29.95,East,92,0.0,0.0,97,0.00,,,0.00,0.0,meteohub,2013-08-08 06:52:00,
2013-08-08 02:57:00,73.8,72.9,29.95,East,92,0.0,0.0,97,0.00,,,0.00,0.0,meteohub,2013-08-08 06:57:00,
2013-08-08 03:02:00,73.8,72.9,29.94,East,92,0.0,0.0,97,0.00,,,0.00,0.0,meteohub,2013-08-08 07:02:00,
2013-08-08 03:07:00,73.8,72.9,29.94,East,92,0.0,0.0,97,0.00,,,0.00,0.0,meteohub,2013-08-08 07:07:00,
2013-08-08 03:12:00,73.8,72.9,29.94,East,92,0.0,0.0,97,0.00,,,0.00,0.0,meteohub,2013-08-08 07:12:00,
2013-08-08 03:17:00,73.9,73.0,29.94,East,92,0.0,0.0,97,0.00,,,0.00,0.0,meteohub,2013-08-08 07:17:00,
2013-08-08 03:22:00,73.8,72.9,29.94,East,92,0.0,0.0,97,0.00,,,0.00,0.0,meteohub,2013-08-08 07:22:00,
2013-08-08 03:27:00,73.8,72.9,29.94,East,92,0.0,0.0,97,0.00,,,0.00,0.0,meteohub,2013-08-08 07:27:00,
2013-08-08 03:32:00,73.8,72.9,29.94,East,92,0.0,0.0,97,0.00,,,0.00,0.0,meteohub,2013-08-08 07:32:00,
2013-08-08 03:37:00,73.6,72.7,29.94,East,92,0.0,0.0,97,0.00,,,0.00,0.0,meteohub,2013-08-08 07:37:00,
2013-08-08 03:42:00,73.6,72.7,29.94,East,92,0.0,0.0,97,0.00,,,0.00,0.0,meteohub,2013-08-08 07:42:00,
2013-08-08 03:47:00,73.4,72.5,29.94,East,92,0.0,0.0,97,0.00,,,0.00,0.0,meteohub,2013-08-08 07:47:00,
2013-08-08 03:52:00,73.6,72.7,29.94,East,92,0.0,0.0,97,0.00,,,0.00,0.0,meteohub,2013-08-08 07:52:00,
2013-08-08 03:57:00,73.6,72.7,29.94,East,92,0.0,0.0,97,0.00,,,0.00,0.0,meteohub,2013-08-08 07:57:00,
2013-08-08 04:02:00,73.6,72.7,29.94,East,92,0.0,0.0,97,0.00,,,0.00,0.0,meteohub,2013-08-08 08:02:00,
2013-08-08 04:07:00,73.6,72.7,29.94,East,92,0.0,0.0,97,0.00,,,0.00,0.0,meteohub,2013-08-08 08:07:00,
2013-08-08 04:12:00,73.6,72.7,29.93,East,92,0.0,0.0,97,0.00,,,0.00,0.0,meteohub,2013-08-08 08:12:00,
2013-08-08 04:17:00,73.8,73.2,29.93,East,92,0.0,0.0,98,0.00,,,0.00,0.0,meteohub,2013-08-08 08:17:00,
2013-08-08 04:22:00,73.8,73.2,29.94,East,92,0.0,0.0,98,0.00,,,0.00,0.0,meteohub,2013-08-08 08:22:00,
2013-08-08 04:27:00,73.8,73.2,29.94,East,92,0.0,0.0,98,0.00,,,0.00,0.0,meteohub,2013-08-08 08:27:00,
2013-08-08 04:32:00,73.9,73.4,29.94,East,92,0.0,0.0,98,0.00,,,0.00,0.0,meteohub,2013-08-08 08:32:00,
2013-08-08 04:37:00,73.9,73.4,29.94,East,92,0.0,0.0,98,0.00,,,0.00,0.0,meteohub,2013-08-08 08:37:00,
2013-08-08 04:42:00,73.8,73.2,29.94,East,92,0.0,0.0,98,0.00,,,0.00,0.0,meteohub,2013-08-08 08:42:00,
2013-08-08 04:47:00,73.8,73.2,29.94,East,92,0.0,0.0,98,0.00,,,0.00,0.0,meteohub,2013-08-08 08:47:00,
2013-08-08 04:52:00,73.9,73.4,29.94,East,92,0.0,0.0,98,0.00,,,0.00,0.0,meteohub,2013-08-08 08:52:00,
2013-08-08 04:57:00,73.9,73.4,29.94,East,92,0.0,0.0,98,0.00,,,0.00,0.0,meteohub,2013-08-08 08:57:00,
2013-08-08 05:02:00,73.9,73.4,29.94,East,92,0.0,0.0,98,0.00,,,0.00,0.0,meteohub,2013-08-08 09:02:00,
2013-08-08 05:07:00,74.1,73.6,29.94,East,92,0.0,0.0,98,0.00,,,0.00,0.0,meteohub,2013-08-08 09:07:00,
2013-08-08 05:12:00,74.1,73.6,29.94,East,92,0.0,0.0,98,0.00,,,0.00,0.0,meteohub,2013-08-08 09:12:00,
2013-08-08 05:17:00,73.9,73.4,29.94,East,92,0.0,0.0,98,0.00,,,0.00,0.0,meteohub,2013-08-08 09:17:00,
2013-08-08 05:22:00,73.9,73.4,29.94,East,92,0.0,0.0,98,0.00,,,0.00,0.0,meteohub,2013-08-08 09:22:00,
2013-08-08 05:27:00,73.9,73.4,29.95,East,92,0.0,0.0,98,0.00,,,0.00,0.0,meteohub,2013-08-08 09:27:00,
2013-08-08 05:32:00,74.1,73.6,29.95,East,92,0.0,0.0,98,0.00,,,0.00,0.0,meteohub,2013-08-08 09:32:00,
2013-08-08 05:37:00,73.9,73.4,29.95,East,92,0.0,0.0,98,0.00,,,0.00,0.0,meteohub,2013-08-08 09:37:00,
2013-08-08 05:42:00,73.9,73.4,29.95,East,92,0.0,0.0,98,0.00,,,0.00,0.0,meteohub,2013-08-08 09:42:00,
2013-08-08 05:47:00,73.9,73.4,29.95,East,92,0.0,0.0,98,0.00,,,0.00,0.0,meteohub,2013-08-08 09:47:00,
2013-08-08 05:52:00,73.9,73.4,29.95,East,92,0.0,0.0,98,0.00,,,0.00,0.0,meteohub,2013-08-08 09:52:00,
2013-08-08 05:57:00,73.8,73.2,29.95,East,92,0.0,0.0,98,0.00,,,0.00,0.0,meteohub,2013-08-08 09:57:00,
2013-08-08 06:02:00,73.8,73.2,29.96,East,92,0.0,0.0,98,0.00,,,0.00,0.0,meteohub,2013-08-08 10:02:00,
2013-08-08 06:07:00,73.8,73.2,29.96,East,92,0.0,0.0,98,0.00,,,0.00,0.0,meteohub,2013-08-08 10:07:00,
2013-08-08 06:12:00,73.9,73.4,29.96,East,92,0.0,0.0,98,0.00,,,0.00,0.0,meteohub,2013-08-08 10:12:00,
2013-08-08 06:17:00,73.9,73.4,29.96,East,92,0.0,0.0,98,0.00,,,0.00,0.0,meteohub,2013-08-08 10:17:00,
2013-08-08 06:22:00,74.1,73.6,29.96,East,92,0.0,0.0,98,0.00,,,0.00,0.0,meteohub,2013-08-08 10:22:00,
2013-08-08 06:27:00,73.9,73.4,29.96,East,92,0.0,0.0,98,0.00,,,0.00,0.0,meteohub,2013-08-08 10:27:00,
2013-08-08 06:32:00,73.9,73.4,29.96,East,92,0.0,0.0,98,0.00,,,0.00,0.0,meteohub,2013-08-08 10:32:00,
2013-08-08 06:37:00,73.9,73.4,29.96,East,92,0.0,0.0,98,0.00,,,0.00,0.0,meteohub,2013-08-08 10:37:00,
2013-08-08 06:42:00,73.9,73.4,29.96,East,92,0.0,0.0,98,0.00,,,0.00,0.0,meteohub,2013-08-08 10:42:00,
2013-08-08 06:47:00,73.9,73.4,29.96,East,92,0.0,0.0,98,0.00,,,0.00,0.0,meteohub,2013-08-08 10:47:00,
2013-08-08 06:52:00,73.9,73.4,29.96,East,92,0.0,0.0,98,0.00,,,0.00,5.0,meteohub,2013-08-08 10:52:00,
2013-08-08 06:57:00,73.9,73.4,29.96,East,92,0.0,0.0,98,0.00,,,0.00,9.0,meteohub,2013-08-08 10:57:00,
2013-08-08 07:02:00,73.9,73.4,29.96,East,92,0.0,0.0,98,0.00,,,0.00,16.0,meteohub,2013-08-08 11:02:00,
2013-08-08 07:07:00,73.9,73.4,29.96,East,92,0.0,0.0,98,0.00,,,0.00,26.0,meteohub,2013-08-08 11:07:00,
2013-08-08 07:12:00,73.9,73.4,29.96,East,92,0.0,0.0,98,0.00,,,0.00,21.0,meteohub,2013-08-08 11:12:00,
2013-08-08 07:17:00,73.9,73.4,29.96,East,92,0.0,0.0,98,0.00,,,0.00,19.0,meteohub,2013-08-08 11:17:00,
2013-08-08 07:22:00,74.1,73.6,29.96,East,92,0.0,0.0,98,0.00,,,0.00,18.0,meteohub,2013-08-08 11:22:00,
2013-08-08 07:27:00,74.1,73.6,29.96,East,92,0.0,0.0,98,0.00,,,0.00,21.0,meteohub,2013-08-08 11:27:00,
2013-08-08 07:32:00,74.1,73.6,29.96,East,92,0.0,0.0,98,0.00,,,0.00,76.0,meteohub,2013-08-08 11:32:00,
2013-08-08 07:37:00,74.5,73.9,29.97,East,92,0.0,0.0,98,0.00,,,0.00,26.0,meteohub,2013-08-08 11:37:00,
2013-08-08 07:42:00,74.7,74.1,29.96,East,92,0.0,0.0,98,0.00,,,0.00,77.0,meteohub,2013-08-08 11:42:00,
2013-08-08 07:47:00,74.8,74.3,29.96,East,92,0.0,0.0,98,0.00,,,0.00,130.0,meteohub,2013-08-08 11:47:00,
2013-08-08 07:52:00,75.2,74.7,29.96,East,92,0.0,0.0,98,0.00,,,0.00,65.0,meteohub,2013-08-08 11:52:00,
2013-08-08 07:57:00,75.7,75.2,29.97,East,92,0.0,0.0,98,0.00,,,0.00,146.0,meteohub,2013-08-08 11:57:00,
2013-08-08 08:02:00,76.5,75.9,29.97,East,92,0.0,0.0,98,0.00,,,0.00,42.0,meteohub,2013-08-08 12:02:00,
2013-08-08 08:07:00,76.6,76.1,29.97,East,92,0.0,0.0,98,0.00,,,0.00,46.0,meteohub,2013-08-08 12:07:00,
2013-08-08 08:12:00,76.6,76.1,29.97,East,92,0.0,0.0,98,0.00,,,0.00,111.0,meteohub,2013-08-08 12:12:00,
2013-08-08 08:17:00,77.0,76.5,29.97,East,92,0.0,0.0,98,0.00,,,0.00,167.0,meteohub,2013-08-08 12:17:00,
2013-08-08 08:22:00,77.4,76.8,29.97,East,92,0.0,0.0,98,0.00,,,0.00,58.0,meteohub,2013-08-08 12:22:00,
2013-08-08 08:27:00,77.7,77.2,29.98,East,92,0.0,0.0,98,0.00,,,0.00,47.0,meteohub,2013-08-08 12:27:00,
2013-08-08 08:32:00,78.3,77.7,29.98,East,92,0.0,0.0,98,0.00,,,0.00,47.0,meteohub,2013-08-08 12:32:00,
2013-08-08 08:37:00,78.4,77.9,29.98,East,92,0.0,0.0,98,0.00,,,0.00,67.0,meteohub,2013-08-08 12:37:00,
2013-08-08 08:42:00,78.6,78.1,29.98,East,92,0.0,0.0,98,0.00,,,0.00,70.0,meteohub,2013-08-08 12:42:00,
2013-08-08 08:47:00,78.6,78.1,29.98,East,92,0.0,0.0,98,0.00,,,0.00,118.0,meteohub,2013-08-08 12:47:00,
2013-08-08 08:52:00,78.8,78.3,29.99,East,92,0.0,0.0,98,0.00,,,0.00,98.0,meteohub,2013-08-08 12:52:00,
2013-08-08 08:57:00,78.8,77.9,29.99,East,92,0.0,0.0,97,0.00,,,0.00,88.0,meteohub,2013-08-08 12:57:00,
2013-08-08 09:02:00,78.8,77.9,29.99,East,92,0.0,1.0,97,0.00,,,0.00,67.0,meteohub,2013-08-08 13:02:00,
2013-08-08 09:07:00,79.0,78.1,29.99,East,92,0.0,1.0,97,0.00,,,0.00,72.0,meteohub,2013-08-08 13:07:00,
2013-08-08 09:12:00,79.0,78.1,29.99,East,92,0.0,1.0,97,0.00,,,0.00,79.0,meteohub,2013-08-08 13:12:00,
2013-08-08 09:17:00,79.2,78.3,29.99,East,92,0.0,1.0,97,0.00,,,0.00,111.0,meteohub,2013-08-08 13:17:00,
2013-08-08 09:22:00,79.3,78.4,29.99,East,92,0.0,0.0,97,0.00,,,0.00,109.0,meteohub,2013-08-08 13:22:00,
2013-08-08 09:27:00,79.5,78.3,29.99,East,92,0.0,0.0,96,0.00,,,0.00,142.0,meteohub,2013-08-08 13:27:00,
2013-08-08 09:32:00,79.9,78.6,29.99,East,92,0.0,0.0,96,0.00,,,0.00,225.0,meteohub,2013-08-08 13:32:00,
2013-08-08 09:37:00,80.2,79.0,29.99,East,92,0.0,0.0,96,0.00,,,0.00,165.0,meteohub,2013-08-08 13:37:00,
2013-08-08 09:42:00,80.4,78.8,29.99,East,92,0.0,1.0,95,0.00,,,0.00,144.0,meteohub,2013-08-08 13:42:00,
2013-08-08 09:47:00,80.8,78.8,29.99,East,91,0.0,1.0,94,0.00,,,0.00,524.0,meteohub,2013-08-08 13:47:00,
2013-08-08 09:52:00,81.5,79.3,29.99,East,92,0.0,1.0,93,0.00,,,0.00,626.0,meteohub,2013-08-08 13:52:00,
2013-08-08 09:57:00,82.2,79.0,29.99,East,92,0.0,1.0,90,0.00,,,0.00,294.0,meteohub,2013-08-08 13:57:00,
2013-08-08 10:02:00,83.5,79.2,29.99,East,91,0.0,1.0,87,0.00,,,0.00,712.0,meteohub,2013-08-08 14:02:00,
2013-08-08 10:07:00,84.4,79.3,29.99,ESE,105,0.0,1.0,85,0.00,,,0.00,701.0,meteohub,2013-08-08 14:07:00,
2013-08-08 10:12:00,85.1,79.3,29.99,ESE,105,1.0,3.0,83,0.00,,,0.00,712.0,meteohub,2013-08-08 14:12:00,
2013-08-08 10:17:00,85.3,79.2,29.99,ESE,105,0.0,3.0,82,0.00,,,0.00,262.0,meteohub,2013-08-08 14:17:00,
2013-08-08 10:22:00,85.5,79.3,29.99,ESE,105,0.0,3.0,82,0.00,,,0.00,406.0,meteohub,2013-08-08 14:22:00,
2013-08-08 10:27:00,85.3,78.8,29.99,ESE,105,0.0,3.0,81,0.00,,,0.00,304.0,meteohub,2013-08-08 14:27:00,
2013-08-08 10:32:00,85.3,78.8,29.99,ESE,107,0.0,2.0,81,0.00,,,0.00,299.0,meteohub,2013-08-08 14:32:00,
2013-08-08 10:37:00,85.6,78.8,29.99,ESE,114,0.0,2.0,80,0.00,,,0.00,357.0,meteohub,2013-08-08 14:37:00,
2013-08-08 10:42:00,85.8,78.6,29.99,SE,134,2.0,3.0,79,0.00,,,0.00,345.0,meteohub,2013-08-08 14:42:00,
2013-08-08 10:47:00,85.5,77.7,29.99,ESE,116,0.0,5.0,78,0.00,,,0.00,350.0,meteohub,2013-08-08 14:47:00,
2013-08-08 10:52:00,85.6,78.8,29.99,SE,131,0.0,5.0,80,0.00,,,0.00,886.0,meteohub,2013-08-08 14:52:00,
2013-08-08 10:57:00,86.2,78.4,29.99,ESE,102,1.0,5.0,78,0.00,,,0.00,896.0,meteohub,2013-08-08 14:57:00,
2013-08-08 11:02:00,86.5,78.4,29.99,SSE,167,1.0,5.0,77,0.00,,,0.00,923.0,meteohub,2013-08-08 15:02:00,
2013-08-08 11:07:00,86.7,77.9,29.99,South,169,0.0,7.0,75,0.00,,,0.00,464.0,meteohub,2013-08-08 15:07:00,
2013-08-08 11:12:00,86.4,77.0,30.00,SE,133,0.0,7.0,74,0.00,,,0.00,362.0,meteohub,2013-08-08 15:12:00,
2013-08-08 11:17:00,86.4,77.9,30.00,SE,145,0.0,7.0,76,0.00,,,0.00,872.0,meteohub,2013-08-08 15:17:00,
2013-08-08 11:22:00,87.1,77.4,29.99,East,79,0.0,5.0,73,0.00,,,0.00,914.0,meteohub,2013-08-08 15:22:00,
2013-08-08 11:27:00,87.4,77.7,30.00,South,173,0.0,5.0,73,0.00,,,0.00,954.0,meteohub,2013-08-08 15:27:00,
2013-08-08 11:32:00,87.8,78.1,30.00,ESE,111,2.0,5.0,73,0.00,,,0.00,911.0,meteohub,2013-08-08 15:32:00,
2013-08-08 11:37:00,88.2,78.8,30.00,ESE,109,0.0,4.0,74,0.00,,,0.00,921.0,meteohub,2013-08-08 15:37:00,
2013-08-08 11:42:00,88.2,78.4,30.00,South,179,3.0,5.0,73,0.00,,,0.00,805.0,meteohub,2013-08-08 15:42:00,
2013-08-08 11:47:00,88.0,77.9,29.99,East,91,0.0,5.0,72,0.00,,,0.00,724.0,meteohub,2013-08-08 15:47:00,
2013-08-08 11:52:00,88.0,77.9,29.99,WSW,246,6.0,6.0,72,0.00,,,0.00,788.0,meteohub,2013-08-08 15:52:00,
2013-08-08 11:57:00,88.0,79.0,29.99,ESE,121,1.0,8.0,75,0.00,,,0.00,956.0,meteohub,2013-08-08 15:57:00,
2013-08-08 12:02:00,88.0,79.5,30.00,SSE,162,0.0,8.0,76,0.00,,,0.00,967.0,meteohub,2013-08-08 16:02:00,
2013-08-08 12:07:00,88.2,78.8,29.99,SE,128,0.0,8.0,74,0.00,,,0.00,246.0,meteohub,2013-08-08 16:07:00,
2013-08-08 12:12:00,87.6,79.2,29.99,ENE,67,0.0,5.0,76,0.00,,,0.00,960.0,meteohub,2013-08-08 16:12:00,
2013-08-08 12:17:00,88.0,79.9,29.99,ENE,71,0.0,5.0,77,0.00,,,0.00,1051.0,meteohub,2013-08-08 16:17:00,
2013-08-08 12:22:00,88.3,78.6,29.99,SE,139,5.0,7.0,73,0.00,,,0.00,1111.0,meteohub,2013-08-08 16:22:00,
2013-08-08 12:27:00,88.0,78.6,29.99,ESE,110,3.0,7.0,74,0.00,,,0.00,559.0,meteohub,2013-08-08 16:27:00,
2013-08-08 12:32:00,87.8,79.3,30.00,ESE,123,0.0,7.0,76,0.00,,,0.00,1287.0,meteohub,2013-08-08 16:32:00,
2013-08-08 12:37:00,88.0,79.0,30.00,South,180,0.0,7.0,75,0.00,,,0.00,339.0,meteohub,2013-08-08 16:37:00,
2013-08-08 12:42:00,87.3,79.2,30.00,East,98,5.0,8.0,77,0.00,,,0.00,519.0,meteohub,2013-08-08 16:42:00,
2013-08-08 12:47:00,86.7,78.6,30.00,ESE,121,2.0,8.0,77,0.00,,,0.00,441.0,meteohub,2013-08-08 16:47:00,
2013-08-08 12:52:00,86.5,79.2,30.00,ESE,114,1.0,8.0,79,0.00,,,0.00,708.0,meteohub,2013-08-08 16:52:00,
2013-08-08 12:57:00,87.1,79.0,30.00,ESE,106,0.0,6.0,77,0.00,,,0.00,1092.0,meteohub,2013-08-08 16:57:00,
2013-08-08 13:02:00,87.4,79.0,30.00,SE,137,3.0,7.0,76,0.00,,,0.00,1157.0,meteohub,2013-08-08 17:02:00,
2013-08-08 13:07:00,87.6,79.5,30.00,ESE,110,1.0,8.0,77,0.00,,,0.00,1100.0,meteohub,2013-08-08 17:07:00,
2013-08-08 13:12:00,87.4,78.6,30.00,East,84,2.0,8.0,75,0.00,,,0.00,1072.0,meteohub,2013-08-08 17:12:00,
2013-08-08 13:17:00,87.1,78.3,30.00,SSE,159,3.0,8.0,75,0.00,,,0.00,506.0,meteohub,2013-08-08 17:17:00,
2013-08-08 13:22:00,86.9,78.4,29.99,East,94,0.0,9.0,76,0.00,,,0.00,680.0,meteohub,2013-08-08 17:22:00,
2013-08-08 13:27:00,87.3,79.5,29.99,East,92,6.0,9.0,78,0.00,,,0.00,503.0,meteohub,2013-08-08 17:27:00,
2013-08-08 13:32:00,87.6,79.5,29.99,ENE,72,0.0,9.0,77,0.00,,,0.00,958.0,meteohub,2013-08-08 17:32:00,
2013-08-08 13:37:00,88.0,79.5,29.99,ESE,102,1.0,8.0,76,0.00,,,0.00,882.0,meteohub,2013-08-08 17:37:00,
2013-08-08 13:42:00,88.3,78.6,29.99,East,91,0.0,8.0,73,0.00,,,0.00,1236.0,meteohub,2013-08-08 17:42:00,
2013-08-08 13:47:00,88.3,77.7,29.99,South,172,6.0,9.0,71,0.00,,,0.00,1151.0,meteohub,2013-08-08 17:47:00,
2013-08-08 13:52:00,88.5,77.0,29.99,SSE,157,1.0,10.0,69,0.00,,,0.00,1127.0,meteohub,2013-08-08 17:52:00,
2013-08-08 13:57:00,88.9,78.3,29.99,SSE,148,10.0,10.0,71,0.00,,,0.00,1127.0,meteohub,2013-08-08 17:57:00,
2013-08-08 14:02:00,88.9,77.9,29.99,SSW,213,0.0,10.0,70,0.00,,,0.00,1002.0,meteohub,2013-08-08 18:02:00,
2013-08-08 14:07:00,88.3,77.7,29.99,South,175,0.0,11.0,71,0.00,,,0.00,253.0,meteohub,2013-08-08 18:07:00,
2013-08-08 14:12:00,86.7,76.6,29.99,West,280,0.0,11.0,72,0.00,,,0.00,144.0,meteohub,2013-08-08 18:12:00,
2013-08-08 14:17:00,85.5,75.7,29.99,WSW,254,0.0,9.0,73,0.00,,,0.00,209.0,meteohub,2013-08-08 18:17:00,
2013-08-08 14:23:00,84.7,75.9,29.99,SSW,206,0.0,9.0,75,0.00,,,0.00,853.0,meteohub,2013-08-08 18:23:00,
2013-08-08 14:28:00,84.7,76.6,30.00,West,279,0.0,7.0,77,0.00,,,0.00,914.0,meteohub,2013-08-08 18:28:00,
2013-08-08 14:33:00,84.7,77.2,30.00,West,281,0.0,4.0,78,0.00,,,0.00,364.0,meteohub,2013-08-08 18:33:00,
2013-08-08 14:38:00,84.6,77.4,29.99,WNW,293,0.0,5.0,79,0.00,,,0.00,492.0,meteohub,2013-08-08 18:38:00,
2013-08-08 14:43:00,84.7,77.5,29.99,WNW,294,0.0,5.0,79,0.00,,,0.00,510.0,meteohub,2013-08-08 18:43:00,
2013-08-08 14:48:00,85.1,77.9,29.98,WNW,294,0.0,5.0,79,0.00,,,0.00,1028.0,meteohub,2013-08-08 18:48:00,
2013-08-08 14:53:00,85.3,77.2,29.98,WNW,292,0.0,5.0,77,0.00,,,0.00,343.0,meteohub,2013-08-08 18:53:00,
2013-08-08 14:58:00,85.5,77.7,29.98,WNW,293,0.0,4.0,78,0.00,,,0.00,257.0,meteohub,2013-08-08 18:58:00,
2013-08-08 15:03:00,85.5,78.6,29.98,WNW,293,3.0,4.0,80,0.00,,,0.00,171.0,meteohub,2013-08-08 19:03:00,
2013-08-08 15:08:00,85.3,78.1,29.98,WNW,293,0.0,4.0,79,0.00,,,0.00,265.0,meteohub,2013-08-08 19:08:00,
2013-08-08 15:13:00,85.5,78.6,29.98,WNW,293,0.0,4.0,80,0.00,,,0.00,230.0,meteohub,2013-08-08 19:13:00,
2013-08-08 15:18:00,86.0,78.0,29.98,SE,124,1.0,-999.0,77,-99.99,,,0.00,970,weatherlink.com 1.10,2013-08-08 19:18:00,
2013-08-08 15:23:00,87.1,77.4,29.98,SE,128,3.0,5.0,73,0.00,,,0.00,911.0,meteohub,2013-08-08 19:23:00,
2013-08-08 15:28:00,88.2,77.5,29.98,ESE,123,2.0,5.0,71,0.00,,,0.00,912.0,meteohub,2013-08-08 19:28:00,
2013-08-08 15:33:00,88.6,77.0,29.98,ENE,76,0.0,-999.0,69,-99.99,,,0.00,926,weatherlink.com 1.10,2013-08-08 19:33:00,
2013-08-08 15:38:00,89.1,77.5,29.98,SSE,156,2.0,6.0,69,0.00,,,0.00,359.0,meteohub,2013-08-08 19:38:00,
2013-08-08 15:43:00,88.3,76.8,29.98,ENE,65,4.0,11.0,69,0.00,,,0.00,234.0,meteohub,2013-08-08 19:43:00,
2013-08-08 15:48:00,87.6,77.0,29.98,SSW,194,0.0,11.0,71,0.00,,,0.00,381.0,meteohub,2013-08-08 19:48:00,
2013-08-08 15:53:00,87.4,77.7,29.98,SE,129,0.0,11.0,73,0.00,,,0.00,367.0,meteohub,2013-08-08 19:53:00,
2013-08-08 15:58:00,87.1,77.0,29.98,South,191,2.0,7.0,72,0.00,,,0.00,128.0,meteohub,2013-08-08 19:58:00,
2013-08-08 16:03:00,86.5,76.8,29.98,SE,138,0.0,6.0,73,0.00,,,0.00,128.0,meteohub,2013-08-08 20:03:00,
2013-08-08 16:08:00,86.2,77.4,29.98,SSE,148,1.0,6.0,75,0.00,,,0.00,130.0,meteohub,2013-08-08 20:08:00,
2013-08-08 16:13:00,85.6,77.2,29.98,SE,133,0.0,6.0,76,0.00,,,0.00,135.0,meteohub,2013-08-08 20:13:00,
2013-08-08 16:18:00,85.5,77.4,29.97,East,96,0.0,7.0,77,0.00,,,0.00,197.0,meteohub,2013-08-08 20:18:00,
2013-08-08 16:23:00,85.6,77.5,29.97,East,90,0.0,7.0,77,0.00,,,0.00,225.0,meteohub,2013-08-08 20:23:00,
2013-08-08 16:28:00,85.8,77.4,29.97,SSW,202,0.0,4.0,76,0.00,,,0.00,267.0,meteohub,2013-08-08 20:28:00,
2013-08-08 16:33:00,85.8,77.4,29.97,South,182,0.0,5.0,76,0.00,,,0.00,178.0,meteohub,2013-08-08 20:33:00,
2013-08-08 16:38:00,85.8,77.4,29.97,SE,142,1.0,5.0,76,0.00,,,0.00,149.0,meteohub,2013-08-08 20:38:00,
2013-08-08 16:43:00,85.8,77.7,29.97,East,87,0.0,5.0,77,0.00,,,0.00,195.0,meteohub,2013-08-08 20:43:00,
2013-08-08 16:48:00,85.8,77.4,29.96,ESE,109,0.0,6.0,76,0.00,,,0.00,334.0,meteohub,2013-08-08 20:48:00,
2013-08-08 16:53:00,86.0,77.9,29.96,ESE,103,0.0,6.0,77,0.00,,,0.00,283.0,meteohub,2013-08-08 20:53:00,
2013-08-08 16:58:00,86.2,77.7,29.96,ESE,119,0.0,6.0,76,0.00,,,0.00,371.0,meteohub,2013-08-08 20:58:00,
2013-08-08 17:03:00,86.5,78.8,29.96,ESE,113,3.0,6.0,78,0.00,,,0.00,374.0,meteohub,2013-08-08 21:03:00,
2013-08-08 17:08:00,86.5,78.4,29.96,SE,143,0.0,6.0,77,0.00,,,0.00,193.0,meteohub,2013-08-08 21:08:00,
2013-08-08 17:14:00,86.4,78.3,29.96,ESE,109,0.0,6.0,77,0.00,,,0.00,171.0,meteohub,2013-08-08 21:14:00,
2013-08-08 17:19:00,86.0,78.3,29.96,ESE,123,0.0,6.0,78,0.00,,,0.00,165.0,meteohub,2013-08-08 21:19:00,
2013-08-08 17:24:00,85.8,78.1,29.96,SE,142,0.0,4.0,78,0.00,,,0.00,153.0,meteohub,2013-08-08 21:24:00,
2013-08-08 17:29:00,85.5,77.7,29.96,ESE,121,0.0,4.0,78,0.00,,,0.00,141.0,meteohub,2013-08-08 21:29:00,
2013-08-08 17:34:00,85.3,77.7,29.96,SSE,163,1.0,4.0,78,0.00,,,0.00,128.0,meteohub,2013-08-08 21:34:00,
2013-08-08 17:40:00,85.1,77.9,29.96,ESE,123,1.0,4.0,79,0.00,,,0.00,120.0,meteohub,2013-08-08 21:40:00,
2013-08-08 17:45:00,84.7,77.9,29.96,ESE,115,1.0,5.0,80,0.00,,,0.00,114.0,meteohub,2013-08-08 21:45:00,
2013-08-08 17:50:00,84.7,77.9,29.96,ESE,121,0.0,5.0,80,0.00,,,0.00,113.0,meteohub,2013-08-08 21:50:00,
2013-08-08 17:55:00,84.6,78.1,29.96,ESE,121,0.0,5.0,81,0.00,,,0.00,111.0,meteohub,2013-08-08 21:55:00,
2013-08-08 18:00:00,84.6,78.4,29.96,ESE,121,0.0,3.0,82,0.00,,,0.00,107.0,meteohub,2013-08-08 22:00:00,
2013-08-08 18:05:00,84.4,78.3,29.96,SE,131,0.0,1.0,82,0.00,,,0.00,102.0,meteohub,2013-08-08 22:05:00,
2013-08-08 18:11:00,84.0,77.9,29.96,East,92,5.0,5.0,82,0.00,,,0.00,97.0,meteohub,2013-08-08 22:11:00,
2013-08-08 18:16:00,83.8,78.1,29.96,ESE,117,0.0,6.0,83,0.00,,,0.00,91.0,meteohub,2013-08-08 22:16:00,
2013-08-08 18:21:00,83.7,77.9,29.96,East,95,1.0,6.0,83,0.00,,,0.00,91.0,meteohub,2013-08-08 22:21:00,
2013-08-08 18:27:00,83.5,77.7,29.96,ENE,57,0.0,6.0,83,0.00,,,0.00,90.0,meteohub,2013-08-08 22:27:00,
2013-08-08 18:32:00,83.5,77.7,29.96,NNW,342,1.0,8.0,83,0.00,,,0.00,84.0,meteohub,2013-08-08 22:32:00,
2013-08-08 18:37:00,83.7,77.9,29.96,ESE,107,2.0,8.0,83,0.00,,,0.00,77.0,meteohub,2013-08-08 22:37:00,
2013-08-08 18:42:00,83.7,77.9,29.96,ESE,102,0.0,8.0,83,0.00,,,0.00,72.0,meteohub,2013-08-08 22:42:00,
2013-08-08 18:47:00,83.7,77.9,29.96,South,182,1.0,5.0,83,0.00,,,0.00,72.0,meteohub,2013-08-08 22:47:00,
2013-08-08 18:52:00,83.8,78.1,29.96,ESE,107,0.0,9.0,83,0.00,,,0.00,70.0,meteohub,2013-08-08 22:52:00,
2013-08-08 18:58:00,83.8,78.1,29.96,SSE,168,2.0,9.0,83,0.00,,,0.00,65.0,meteohub,2013-08-08 22:58:00,
2013-08-08 19:03:00,83.8,77.7,29.96,East,88,3.0,9.0,82,0.00,,,0.00,60.0,meteohub,2013-08-08 23:03:00,
2013-08-08 19:08:00,83.8,77.7,29.97,ESE,122,3.0,5.0,82,0.00,,,0.00,54.0,meteohub,2013-08-08 23:08:00,
2013-08-08 19:13:00,83.7,77.5,29.97,North,355,1.0,5.0,82,0.00,,,0.00,58.0,meteohub,2013-08-08 23:13:00,
2013-08-08 19:18:00,83.4,78.0,29.97,East,92,0.0,-999.0,83,-99.99,,,0.00,49,weatherlink.com 1.10,2013-08-08 23:18:00,
2013-08-08 19:23:00,83.5,77.7,29.97,East,88,2.0,5.0,83,0.00,,,0.00,47.0,meteohub,2013-08-08 23:23:00,
2013-08-08 19:28:00,83.1,77.4,29.97,ENE,76,1.0,4.0,83,0.00,,,0.00,42.0,meteohub,2013-08-08 23:28:00,
2013-08-08 19:33:00,83.1,77.7,29.97,SE,142,0.0,4.0,84,0.00,,,0.00,40.0,meteohub,2013-08-08 23:33:00,
2013-08-08 19:38:00,83.1,77.7,29.97,ESE,104,1.0,4.0,84,0.00,,,0.00,26.0,meteohub,2013-08-08 23:38:00,
2013-08-08 19:44:00,82.9,77.5,29.98,SE,132,0.0,5.0,84,0.00,,,0.00,26.0,meteohub,2013-08-08 23:44:00,
2013-08-08 19:49:00,82.9,77.5,29.98,SE,138,0.0,5.0,84,0.00,,,0.00,16.0,meteohub,2013-08-08 23:49:00,
2013-08-08 19:54:00,82.8,77.4,29.98,ESE,121,0.0,5.0,84,0.00,,,0.00,12.0,meteohub,2013-08-08 23:54:00,
2013-08-08 20:00:00,82.6,77.5,29.98,ESE,121,0.0,3.0,85,0.00,,,0.00,11.0,meteohub,2013-08-09 00:00:00,
2013-08-08 20:05:00,82.2,77.2,29.98,SSE,155,0.0,2.0,85,0.00,,,0.00,7.0,meteohub,2013-08-09 00:05:00,
2013-08-08 20:10:00,82.0,77.0,29.98,SSE,155,0.0,2.0,85,0.00,,,0.00,0.0,meteohub,2013-08-09 00:10:00,
2013-08-08 20:16:00,81.9,76.8,29.98,SE,138,0.0,2.0,85,0.00,,,0.00,0.0,meteohub,2013-08-09 00:16:00,
2013-08-08 20:21:00,81.7,77.0,29.99,SE,138,0.0,1.0,86,0.00,,,0.00,0.0,meteohub,2013-08-09 00:21:00,
2013-08-08 20:26:00,81.7,77.0,29.99,SE,138,0.0,1.0,86,0.00,,,0.00,0.0,meteohub,2013-08-09 00:26:00,
2013-08-08 20:31:00,81.3,76.6,29.99,ESE,106,0.0,1.0,86,0.00,,,0.00,0.0,meteohub,2013-08-09 00:31:00,
2013-08-08 20:36:00,81.3,76.6,29.99,ESE,107,0.0,1.0,86,0.00,,,0.00,0.0,meteohub,2013-08-09 00:36:00,
2013-08-08 20:41:00,81.1,76.8,29.99,ESE,107,0.0,1.0,87,0.00,,,0.00,0.0,meteohub,2013-08-09 00:41:00,
2013-08-08 20:46:00,81.1,76.8,29.99,ESE,107,0.0,1.0,87,0.00,,,0.00,0.0,meteohub,2013-08-09 00:46:00,
2013-08-08 20:51:00,81.0,77.0,29.99,ESE,106,0.0,0.0,88,0.00,,,0.00,0.0,meteohub,2013-08-09 00:51:00,
2013-08-08 20:56:00,81.0,77.0,29.99,East,92,0.0,1.0,88,0.00,,,0.00,0.0,meteohub,2013-08-09 00:56:00,
2013-08-08 21:01:00,80.8,76.8,29.99,East,91,0.0,1.0,88,0.00,,,0.00,0.0,meteohub,2013-08-09 01:01:00,
2013-08-08 21:06:00,80.8,77.2,30.00,ESE,105,0.0,1.0,89,0.00,,,0.00,0.0,meteohub,2013-08-09 01:06:00,
2013-08-08 21:12:00,81.0,77.4,30.00,SE,136,0.0,2.0,89,0.00,,,0.00,0.0,meteohub,2013-08-09 01:12:00,
2013-08-08 21:17:00,81.0,77.4,30.00,ESE,119,1.0,2.0,89,0.00,,,0.00,0.0,meteohub,2013-08-09 01:17:00,
2013-08-08 21:22:00,81.0,77.4,30.00,ESE,119,0.0,3.0,89,0.00,,,0.00,0.0,meteohub,2013-08-09 01:22:00,
2013-08-08 21:27:00,81.0,77.4,30.00,SE,128,0.0,3.0,89,0.00,,,0.00,0.0,meteohub,2013-08-09 01:27:00,
2013-08-08 21:32:00,81.0,77.4,30.00,SE,128,0.0,3.0,89,0.00,,,0.00,0.0,meteohub,2013-08-09 01:32:00,
2013-08-08 21:37:00,80.8,77.2,30.00,SE,128,0.0,2.0,89,0.00,,,0.00,0.0,meteohub,2013-08-09 01:37:00,
2013-08-08 21:42:00,80.8,77.2,30.01,SE,128,0.0,1.0,89,0.00,,,0.00,0.0,meteohub,2013-08-09 01:42:00,
2013-08-08 21:47:00,80.8,77.2,30.01,SE,132,1.0,1.0,89,0.00,,,0.00,0.0,meteohub,2013-08-09 01:47:00,
2013-08-08 21:52:00,80.6,77.0,30.01,East,101,0.0,1.0,89,0.00,,,0.00,0.0,meteohub,2013-08-09 01:52:00,
2013-08-08 21:57:00,80.6,77.0,30.02,East,101,0.0,1.0,89,0.00,,,0.00,0.0,meteohub,2013-08-09 01:57:00,
2013-08-08 22:02:00,80.4,76.8,30.02,East,101,0.0,1.0,89,0.00,,,0.00,0.0,meteohub,2013-08-09 02:02:00,
2013-08-08 22:07:00,80.4,76.8,30.01,East,101,0.0,0.0,89,0.00,,,0.00,0.0,meteohub,2013-08-09 02:07:00,
2013-08-08 22:12:00,80.2,76.6,30.01,East,101,0.0,0.0,89,0.00,,,0.00,0.0,meteohub,2013-08-09 02:12:00,
2013-08-08 22:17:00,80.2,77.0,30.02,East,101,0.0,0.0,90,0.00,,,0.00,0.0,meteohub,2013-08-09 02:17:00,
2013-08-08 22:22:00,79.9,76.6,30.02,East,101,0.0,0.0,90,0.00,,,0.00,0.0,meteohub,2013-08-09 02:22:00,
2013-08-08 22:27:00,79.7,76.5,30.02,East,101,0.0,0.0,90,0.00,,,0.00,0.0,meteohub,2013-08-09 02:27:00,
2013-08-08 22:33:00,79.5,76.6,30.02,East,101,0.0,0.0,91,0.00,,,0.00,0.0,meteohub,2013-08-09 02:33:00,
2013-08-08 22:38:00,79.5,77.0,30.03,East,101,0.0,0.0,92,0.00,,,0.00,0.0,meteohub,2013-08-09 02:38:00,
2013-08-08 22:43:00,79.3,76.8,30.03,East,101,0.0,0.0,92,0.00,,,0.00,0.0,meteohub,2013-08-09 02:43:00,
2013-08-08 22:48:00,79.2,76.6,30.03,East,101,0.0,0.0,92,0.00,,,0.00,0.0,meteohub,2013-08-09 02:48:00,
2013-08-08 22:53:00,79.0,76.8,30.03,East,101,0.0,0.0,93,0.00,,,0.00,0.0,meteohub,2013-08-09 02:53:00,
2013-08-08 22:59:00,78.6,76.5,30.03,East,101,0.0,0.0,93,0.00,,,0.00,0.0,meteohub,2013-08-09 02:59:00,
2013-08-08 23:04:00,78.6,76.5,30.03,East,101,0.0,0.0,93,0.00,,,0.00,0.0,meteohub,2013-08-09 03:04:00,
2013-08-08 23:09:00,78.6,76.8,30.03,East,101,0.0,0.0,94,0.00,,,0.00,0.0,meteohub,2013-08-09 03:09:00,
2013-08-08 23:14:00,78.6,76.8,30.03,East,101,0.0,0.0,94,0.00,,,0.00,0.0,meteohub,2013-08-09 03:14:00,
2013-08-08 23:20:00,78.6,76.8,30.02,East,101,0.0,0.0,94,0.00,,,0.00,0.0,meteohub,2013-08-09 03:20:00,
2013-08-08 23:25:00,78.8,77.0,30.02,ESE,107,0.0,1.0,94,0.00,,,0.00,0.0,meteohub,2013-08-09 03:25:00,
2013-08-08 23:31:00,79.2,77.0,30.02,ESE,121,0.0,2.0,93,0.00,,,0.00,0.0,meteohub,2013-08-09 03:31:00,
2013-08-08 23:36:00,79.5,77.0,30.02,ESE,118,0.0,2.0,92,0.00,,,0.00,0.0,meteohub,2013-08-09 03:36:00,
2013-08-08 23:41:00,79.9,77.0,30.02,ESE,118,0.0,1.0,91,0.00,,,0.00,0.0,meteohub,2013-08-09 03:41:00,
2013-08-08 23:46:00,80.1,77.2,30.02,SSE,166,0.0,1.0,91,0.00,,,0.00,0.0,meteohub,2013-08-09 03:46:00,
2013-08-08 23:51:00,80.2,77.0,30.02,ESE,116,0.0,3.0,90,0.00,,,0.00,0.0,meteohub,2013-08-09 03:51:00,
2013-08-08 23:56:00,80.2,77.0,30.02,SE,125,0.0,3.0,90,0.00,,,0.00,0.0,meteohub,2013-08-09 03:56:00,